Time;durP1;ratioP1;P1;durP2;ratioP2;P2;SDS_P1;SDS_P2;PMS_P1;PMS_P2;Temp;Humidity;BMP_temperature;BMP_pressure;BME280_temperature;BME280_humidity;BME280_pressure;Samples;Min_cycle;Max_cycle;Signal;HPM_P1;HPM_P2
2021/03/06 00:00:59;;;;;;;;;;;;;;;1.09;63.28;97163.88;1767832;81;20248;-56
2021/03/06 00:03:28;;;;;;;;;;;;;;;1.10;63.12;97170.67;1726176;82;20228;-55
2021/03/06 00:05:57;;;;;;;;;;;;;;;1.10;62.95;97171.09;1760064;81;20263;-53
2021/03/06 00:08:26;;;;;;;;;;;;;;;1.09;62.91;97171.54;1747245;81;21373;-53
2021/03/06 00:10:54;;;;;;;;;;;;;;;1.09;62.95;97172.81;1755600;81;20239;-53
2021/03/06 00:13:24;;;;;;;;;;;;;;;1.09;62.87;97176.66;1738473;81;20219;-53
2021/03/06 00:15:54;;;;;;;;;;;;;;;1.10;62.85;97175.79;1756744;81;20910;-53
2021/03/06 00:18:23;;;;;;;;;;;;;;;1.07;62.86;97178.86;1767504;81;20236;-53
2021/03/06 00:20:50;;;;;;;;;;;;;;;1.06;63.01;97179.72;1768729;81;21018;-53
2021/03/06 00:23:18;;;;;;;;;;;;;;;1.07;62.98;97182.25;1767270;81;21143;-53
2021/03/06 00:25:45;;;;;;;;;;;;;;;1.06;63.00;97179.28;1748088;81;20226;-53
2021/03/06 00:28:13;;;;;;;;;;;;;;;1.09;63.08;97183.48;1739041;81;20226;-54
2021/03/06 00:30:44;;;;;;;;;;;;;;;1.10;63.04;97182.18;1738867;81;20222;-54
2021/03/06 00:33:11;;;;;;;;;;;;;;;1.09;62.97;97179.66;1694631;81;21970;-54
2021/03/06 00:35:40;;;;;;;;;;;;;;;1.08;63.00;97183.91;1760303;81;20487;-54
2021/03/06 00:38:08;;;;;;;;;;;;;;;1.06;63.12;97180.55;1737445;82;20496;-54
2021/03/06 00:40:35;;;;;;;;;;;;;;;1.06;63.11;97178.00;1733303;82;20224;-53
2021/03/06 00:43:03;;;;;;;;;;;;;;;1.06;63.15;97181.00;1718667;83;20222;-54
2021/03/06 00:45:32;;;;;;;;;;;;;;;1.08;63.02;97183.91;1735305;81;21362;-54
2021/03/06 00:48:00;;;;;;;;;;;;;;;1.10;62.93;97183.45;1758378;81;20326;-53
2021/03/06 00:50:33;;;;;;;;;;;;;;;1.12;62.82;97178.73;1733014;81;20270;-53
2021/03/06 00:53:01;;;;;;;;;;;;;;;1.12;62.73;97176.17;1732332;81;20231;-53
2021/03/06 00:55:31;;;;;;;;;;;;;;;1.10;62.74;97176.20;1753513;81;20232;-54
2021/03/06 00:57:59;;;;;;;;;;;;;;;1.07;62.81;97171.19;1762577;81;22280;-54
2021/03/06 01:00:27;;;;;;;;;;;;;;;1.07;62.74;97180.14;1762384;81;20212;-54
2021/03/06 01:02:56;;;;;;;;;;;;;;;1.07;62.68;97178.86;1758954;81;20236;-54
2021/03/06 01:05:24;;;;;;;;;;;;;;;1.04;62.52;97178.48;1732424;81;20388;-54
2021/03/06 01:07:52;;;;;;;;;;;;;;;1.05;62.43;97175.47;1754723;81;20494;-54
2021/03/06 01:10:26;;;;;;;;;;;;;;;1.04;62.34;97181.48;1732245;83;21369;-54
2021/03/06 01:12:53;;;;;;;;;;;;;;;1.06;62.29;97175.89;1735616;81;20227;-54
2021/03/06 01:15:20;;;;;;;;;;;;;;;1.07;62.23;97180.97;1747975;81;20237;-54
2021/03/06 01:17:48;;;;;;;;;;;;;;;1.06;62.14;97183.11;1710906;81;20299;-54
2021/03/06 01:20:17;;;;;;;;;;;;;;;1.04;62.05;97187.87;1755707;81;20495;-54
2021/03/06 01:22:44;;;;;;;;;;;;;;;1.00;62.12;97187.08;1734078;81;21431;-54
2021/03/06 01:25:13;;;;;;;;;;;;;;;1.02;62.00;97185.77;1748198;81;20215;-54
2021/03/06 01:27:41;;;;;;;;;;;;;;;1.01;61.86;97193.05;1757360;81;20231;-55
2021/03/06 01:30:11;;;;;;;;;;;;;;;0.97;61.86;97192.28;1734322;81;20285;-54
2021/03/06 01:32:38;;;;;;;;;;;;;;;0.96;61.78;97190.59;1710084;82;20215;-54
2021/03/06 01:35:07;;;;;;;;;;;;;;;0.94;61.76;97192.77;1736124;82;21422;-54
2021/03/06 01:37:38;;;;;;;;;;;;;;;0.90;61.89;97196.69;1734553;82;20647;-54
2021/03/06 01:40:08;;;;;;;;;;;;;;;0.89;61.78;97191.62;1731822;82;20225;-55
2021/03/06 01:42:36;;;;;;;;;;;;;;;0.88;61.85;97198.42;1728146;81;20911;-55
2021/03/06 01:45:05;;;;;;;;;;;;;;;0.89;61.80;97199.28;1710740;82;20794;-55
2021/03/06 01:47:32;;;;;;;;;;;;;;;0.89;61.66;97202.67;1712547;82;21201;-54
2021/03/06 01:50:01;;;;;;;;;;;;;;;0.88;61.63;97201.42;1737647;82;20212;-54
2021/03/06 01:52:30;;;;;;;;;;;;;;;0.88;61.67;97197.59;1738370;82;20284;-54
2021/03/06 01:54:58;;;;;;;;;;;;;;;0.86;61.58;97198.06;1726496;83;20245;-54
2021/03/06 01:57:25;;;;;;;;;;;;;;;0.84;61.57;97197.23;1722507;83;20236;-54
2021/03/06 01:59:53;;;;;;;;;;;;;;;0.82;61.59;97198.58;1709558;84;21231;-54
2021/03/06 02:02:20;;;;;;;;;;;;;;;0.84;61.36;97197.23;1733101;81;20230;-54
2021/03/06 02:04:48;;;;;;;;;;;;;;;0.83;60.84;97197.69;1729256;81;20240;-54
2021/03/06 02:07:16;;;;;;;;;;;;;;;0.82;60.65;97200.27;1750741;81;20234;-54
2021/03/06 02:09:43;;;;;;;;;;;;;;;0.82;60.89;97205.38;1698291;83;20497;-54
2021/03/06 02:12:35;;;;;;;;;;;;;;;0.84;60.83;97201.93;1715553;82;21260;-54
2021/03/06 02:15:09;;;;;;;;;;;;;;;0.84;60.72;97205.77;1734019;82;20219;-53
2021/03/06 02:17:49;;;;;;;;;;;;;;;0.83;60.73;97200.69;1742682;82;20212;-53
2021/03/06 02:20:27;;;;;;;;;;;;;;;0.78;60.57;97203.34;1682785;83;20250;-53
2021/03/06 02:23:26;;;;;;;;;;;;;;;0.72;60.40;97202.19;1699615;83;20218;-53
2021/03/06 02:26:19;;;;;;;;;;;;;;;0.64;60.36;97204.92;1727028;82;21119;-54
2021/03/06 02:28:53;;;;;;;;;;;;;;;0.54;60.51;97224.70;1744394;82;20216;-54
2021/03/06 02:31:21;;;;;;;;;;;;;;;0.51;60.70;97225.17;1736433;81;20273;-54
2021/03/06 02:34:01;;;;;;;;;;;;;;;0.49;59.98;97215.02;1715906;82;20230;-54
2021/03/06 02:36:29;;;;;;;;;;;;;;;0.39;59.71;97216.05;1715109;83;20294;-53
2021/03/06 02:38:58;;;;;;;;;;;;;;;0.28;60.01;97217.56;1735205;81;21259;-54
2021/03/06 02:41:26;;;;;;;;;;;;;;;0.26;60.06;97223.55;1699452;83;20501;-54
2021/03/06 02:43:53;;;;;;;;;;;;;;;0.25;60.00;97224.44;1703956;83;20256;-54
2021/03/06 02:46:22;;;;;;;;;;;;;;;0.22;60.05;97226.60;1699561;84;20250;-54
2021/03/06 02:48:50;;;;;;;;;;;;;;;0.20;60.12;97225.80;1713424;83;20282;-54
2021/03/06 02:51:17;;;;;;;;;;;;;;;0.16;59.93;97230.12;1720820;83;21225;-54
2021/03/06 02:53:45;;;;;;;;;;;;;;;0.10;59.86;97234.06;1719761;83;20239;-54
2021/03/06 02:56:12;;;;;;;;;;;;;;;0.04;60.02;97232.89;1708726;83;20228;-54
2021/03/06 02:59:08;;;;;;;;;;;;;;;-0.05;60.04;97239.42;1716910;83;20257;-54
2021/03/06 03:01:55;;;;;;;;;;;;;;;-0.15;60.31;97239.19;1728493;83;20218;-53
2021/03/06 03:04:29;;;;;;;;;;;;;;;-0.23;60.38;97253.34;1709337;83;22254;-53
2021/03/06 03:07:09;;;;;;;;;;;;;;;-0.30;60.62;97245.39;1725570;83;20226;-53
2021/03/06 03:09:39;;;;;;;;;;;;;;;-0.34;60.71;97254.81;1701866;83;20217;-53
2021/03/06 03:12:13;;;;;;;;;;;;;;;-0.37;60.74;97251.86;1700056;83;20221;-52
2021/03/06 03:15:05;;;;;;;;;;;;;;;-0.40;60.76;97257.45;1703246;83;20512;-54
2021/03/06 03:17:37;;;;;;;;;;;;;;;-0.43;60.72;97267.70;1701526;83;21738;-56
2021/03/06 03:20:26;;;;;;;;;;;;;;;-0.47;60.79;97273.73;1699731;83;20230;-52
2021/03/06 03:22:57;;;;;;;;;;;;;;;-0.51;60.75;97277.17;1708566;83;20228;-53
2021/03/06 03:25:24;;;;;;;;;;;;;;;-0.54;60.80;97274.25;1728690;83;20218;-53
2021/03/06 03:27:52;;;;;;;;;;;;;;;-0.58;60.61;97281.11;1697074;83;20504;-53
2021/03/06 03:30:21;;;;;;;;;;;;;;;-0.65;60.75;97282.05;1702022;83;21301;-53
2021/03/06 03:32:51;;;;;;;;;;;;;;;-0.72;60.90;97288.11;1725885;83;20250;-53
2021/03/06 03:35:20;;;;;;;;;;;;;;;-0.77;60.96;97293.27;1717665;83;20251;-53
2021/03/06 03:37:48;;;;;;;;;;;;;;;-0.80;60.92;97289.93;1723391;83;20759;-53
2021/03/06 03:40:17;;;;;;;;;;;;;;;-0.85;61.13;97295.09;1727611;83;20574;-53
2021/03/06 03:42:46;;;;;;;;;;;;;;;-0.86;61.22;97300.20;1711821;83;21225;-54
2021/03/06 03:45:15;;;;;;;;;;;;;;;-0.89;61.11;97301.06;1730997;81;20506;-54
2021/03/06 03:47:42;;;;;;;;;;;;;;;-0.94;61.33;97299.02;1758538;81;20484;-55
2021/03/06 03:50:15;;;;;;;;;;;;;;;-0.99;61.41;97302.06;1759159;81;20225;-53
2021/03/06 03:52:45;;;;;;;;;;;;;;;-1.03;61.48;97308.08;1749344;81;20268;-53
2021/03/06 03:55:14;;;;;;;;;;;;;;;-1.09;61.56;97306.88;1698316;82;21220;-54
2021/03/06 03:57:49;;;;;;;;;;;;;;;-1.15;61.65;97308.64;1680240;84;20231;-54
2021/03/06 04:00:18;;;;;;;;;;;;;;;-1.19;61.79;97309.96;1746048;81;20227;-55
2021/03/06 04:02:46;;;;;;;;;;;;;;;-1.25;61.62;97315.12;1746408;81;20247;-54
2021/03/06 04:05:14;;;;;;;;;;;;;;;-1.34;61.76;97314.81;1732893;81;20219;-54
2021/03/06 04:07:47;;;;;;;;;;;;;;;-1.39;61.99;97314.02;1735493;81;21143;-56
2021/03/06 04:10:18;;;;;;;;;;;;;;;-1.39;62.03;97317.84;1761061;81;20616;-55
2021/03/06 04:12:45;;;;;;;;;;;;;;;-1.41;62.16;97320.41;1749073;81;20224;-54
2021/03/06 04:15:14;;;;;;;;;;;;;;;-1.38;62.18;97322.92;1760549;81;20221;-54
2021/03/06 04:17:43;;;;;;;;;;;;;;;-1.36;62.10;97322.47;1734968;81;20226;-54
2021/03/06 04:20:13;;;;;;;;;;;;;;;-1.34;61.85;97333.47;1738779;81;21208;-55
2021/03/06 04:22:40;;;;;;;;;;;;;;;-1.35;61.85;97333.07;1739214;81;20279;-53
2021/03/06 04:25:11;;;;;;;;;;;;;;;-1.36;61.78;97340.28;1744776;81;20964;-54
2021/03/06 04:27:38;;;;;;;;;;;;;;;-1.35;61.74;97347.48;1750032;81;20220;-54
2021/03/06 04:30:08;;;;;;;;;;;;;;;-1.35;61.55;97344.94;1752860;81;20222;-54
2021/03/06 04:32:37;;;;;;;;;;;;;;;-1.40;61.58;97347.55;1759170;81;21370;-54
2021/03/06 04:35:06;;;;;;;;;;;;;;;-1.45;61.50;97342.92;1732775;81;20494;-54
2021/03/06 04:37:33;;;;;;;;;;;;;;;-1.49;61.50;97352.30;1712257;82;20483;-56
2021/03/06 04:40:00;;;;;;;;;;;;;;;-1.52;61.41;97351.05;1726136;83;20505;-54
2021/03/06 04:42:29;;;;;;;;;;;;;;;-1.50;61.62;97351.91;1732498;82;20211;-54
2021/03/06 04:44:56;;;;;;;;;;;;;;;-1.54;61.10;97354.48;1738338;82;21112;-53
2021/03/06 04:47:24;;;;;;;;;;;;;;;-1.60;61.00;97353.27;1742031;82;20660;-55
2021/03/06 04:49:52;;;;;;;;;;;;;;;-1.65;60.84;97346.11;1741931;82;20232;-53
2021/03/06 04:52:21;;;;;;;;;;;;;;;-1.73;60.83;97347.05;1738870;82;20231;-52
2021/03/06 04:54:51;;;;;;;;;;;;;;;-1.75;60.77;97358.08;1740285;82;20260;-54
2021/03/06 04:57:18;;;;;;;;;;;;;;;-1.79;60.65;97362.77;1740613;82;21227;-55
2021/03/06 04:59:46;;;;;;;;;;;;;;;-1.85;60.65;97359.86;1739377;82;20232;-52
2021/03/06 05:02:13;;;;;;;;;;;;;;;-1.88;60.68;97362.43;1739949;82;20236;-53
2021/03/06 05:04:42;;;;;;;;;;;;;;;-1.88;60.72;97368.78;1720030;83;20501;-54
2021/03/06 05:07:09;;;;;;;;;;;;;;;-1.82;60.72;97368.74;1690035;84;20703;-57
2021/03/06 05:09:37;;;;;;;;;;;;;;;-1.74;60.63;97369.95;1714729;83;23699;-52
2021/03/06 05:12:06;;;;;;;;;;;;;;;-1.54;60.47;97370.59;1719962;83;20216;-52
2021/03/06 05:14:33;;;;;;;;;;;;;;;-1.12;60.51;97372.27;1717269;83;20235;-54
2021/03/06 05:17:02;;;;;;;;;;;;;;;-0.45;59.78;97375.24;1714710;83;20215;-54
2021/03/06 05:19:30;;;;;;;;;;;;;;;0.28;58.64;97372.41;1714688;83;20271;-53
2021/03/06 05:21:58;;;;;;;;;;;;;;;0.84;57.18;97371.83;1716974;83;21225;-53
2021/03/06 05:24:26;;;;;;;;;;;;;;;1.26;56.35;97376.11;1692687;83;20282;-53
2021/03/06 05:27:12;;;;;;;;;;;;;;;1.78;55.36;97380.09;1721686;82;20221;-52
2021/03/06 05:29:29;;;;;;;;;;;;;;;2.26;53.97;97384.08;1686673;83;20515;-54
2021/03/06 05:31:59;;;;;;;;;;;;;;;2.63;53.47;97385.73;1731358;82;20209;-53
2021/03/06 05:34:27;;;;;;;;;;;;;;;2.93;52.48;97387.07;1738718;82;22139;-52
2021/03/06 05:36:54;;;;;;;;;;;;;;;2.95;52.07;97395.55;1715587;82;20679;-53
2021/03/06 05:39:21;;;;;;;;;;;;;;;2.87;52.20;97401.33;1718312;82;20490;-53
2021/03/06 05:41:48;;;;;;;;;;;;;;;2.70;52.20;97409.02;1712950;82;20234;-53
2021/03/06 05:44:18;;;;;;;;;;;;;;;2.51;52.29;97411.64;1712142;82;21714;-53
2021/03/06 05:46:45;;;;;;;;;;;;;;;2.44;52.69;97417.36;1714693;82;21213;-53
2021/03/06 05:49:13;;;;;;;;;;;;;;;2.46;52.82;97421.17;1722335;82;21790;-53
2021/03/06 05:51:41;;;;;;;;;;;;;;;2.39;52.88;97421.77;1736537;82;20259;-53
2021/03/06 05:54:12;;;;;;;;;;;;;;;2.30;53.23;97427.09;1730233;82;20390;-53
2021/03/06 05:56:42;;;;;;;;;;;;;;;2.13;53.67;97434.73;1747294;81;20228;-52
2021/03/06 05:59:13;;;;;;;;;;;;;;;1.93;54.21;97442.88;1715551;82;22116;-52
2021/03/06 06:01:42;;;;;;;;;;;;;;;1.78;54.76;97447.90;1681745;84;20286;-53
2021/03/06 06:04:09;;;;;;;;;;;;;;;1.66;55.15;97450.70;1704525;84;20558;-52
2021/03/06 06:06:38;;;;;;;;;;;;;;;1.55;55.63;97460.34;1704415;84;20227;-52
2021/03/06 06:09:07;;;;;;;;;;;;;;;1.50;56.05;97464.69;1701074;82;20238;-53
2021/03/06 06:11:35;;;;;;;;;;;;;;;1.39;56.30;97467.48;1726652;83;22304;-52
2021/03/06 06:14:03;;;;;;;;;;;;;;;1.33;56.70;97470.98;1668130;84;20455;-53
2021/03/06 06:16:34;;;;;;;;;;;;;;;1.33;56.87;97481.20;1696129;84;20221;-53
2021/03/06 06:19:03;;;;;;;;;;;;;;;1.30;56.87;97480.02;1663601;84;20239;-53
2021/03/06 06:21:47;;;;;;;;;;;;;;;1.27;57.10;97490.30;1744682;81;21644;-53
2021/03/06 06:24:17;;;;;;;;;;;;;;;1.28;57.36;97485.16;1736711;82;21219;-52
2021/03/06 06:26:54;;;;;;;;;;;;;;;1.32;57.35;97485.10;1721400;82;20215;-53
2021/03/06 06:29:39;;;;;;;;;;;;;;;1.39;57.48;97493.05;1729341;82;20244;-53
2021/03/06 06:32:10;;;;;;;;;;;;;;;1.47;57.53;97497.12;1735069;82;20492;-53
2021/03/06 06:34:40;;;;;;;;;;;;;;;1.52;57.63;97502.61;1744762;82;20219;-53
2021/03/06 06:37:09;;;;;;;;;;;;;;;1.51;57.49;97503.02;1740985;82;21211;-53
2021/03/06 06:39:37;;;;;;;;;;;;;;;1.47;57.36;97503.52;1737937;82;20718;-53
2021/03/06 06:42:04;;;;;;;;;;;;;;;1.37;57.44;97504.59;1729808;82;20271;-53
2021/03/06 06:44:32;;;;;;;;;;;;;;;1.27;57.65;97511.58;1720960;82;20220;-54
2021/03/06 06:47:16;;;;;;;;;;;;;;;1.22;57.72;97521.50;1728679;82;20490;-53
2021/03/06 06:49:46;;;;;;;;;;;;;;;1.15;57.84;97518.63;1710134;84;20511;-53
2021/03/06 06:52:15;;;;;;;;;;;;;;;1.21;57.86;97523.64;1720666;82;20252;-53
2021/03/06 06:54:52;;;;;;;;;;;;;;;1.59;57.40;97520.79;1736858;82;20224;-53
2021/03/06 06:57:19;;;;;;;;;;;;;;;1.87;56.51;97529.19;1739533;81;20520;-53
2021/03/06 07:00:07;;;;;;;;;;;;;;;1.96;56.02;97532.84;1700715;83;20225;-53
2021/03/06 07:02:35;;;;;;;;;;;;;;;1.98;55.90;97537.49;1696920;84;21407;-53
2021/03/06 07:05:05;;;;;;;;;;;;;;;1.94;55.72;97535.86;1710161;84;20235;-53
2021/03/06 07:07:37;;;;;;;;;;;;;;;2.00;55.68;97539.57;1711946;82;20243;-53
2021/03/06 07:10:09;;;;;;;;;;;;;;;2.06;55.51;97544.57;1698272;83;20245;-53
2021/03/06 07:12:38;;;;;;;;;;;;;;;2.19;55.62;97542.59;1739678;82;20216;-53
2021/03/06 07:15:16;;;;;;;;;;;;;;;2.58;55.15;97543.83;1739674;82;21369;-53
2021/03/06 07:17:45;;;;;;;;;;;;;;;3.24;53.96;97545.21;1718991;82;20223;-53
2021/03/06 07:20:22;;;;;;;;;;;;;;;4.40;52.07;97544.94;1710256;84;20231;-53
2021/03/06 07:22:50;;;;;;;;;;;;;;;5.07;49.76;97542.41;1709448;82;20926;-53
2021/03/06 07:25:19;;;;;;;;;;;;;;;5.78;48.35;97542.54;1735415;82;20512;-53
2021/03/06 07:27:47;;;;;;;;;;;;;;;6.93;45.60;97538.61;1739631;82;22085;-53
2021/03/06 07:30:16;;;;;;;;;;;;;;;8.19;42.27;97541.39;1739601;82;20221;-53
2021/03/06 07:32:47;;;;;;;;;;;;;;;9.39;39.83;97544.73;1736112;82;20487;-53
2021/03/06 07:35:15;;;;;;;;;;;;;;;10.32;38.35;97542.52;1739667;82;20252;-53
2021/03/06 07:37:43;;;;;;;;;;;;;;;11.36;37.18;97537.09;1737061;82;20530;-54
2021/03/06 07:40:12;;;;;;;;;;;;;;;12.59;34.99;97534.00;1697633;83;21168;-54
2021/03/06 07:42:46;;;;;;;;;;;;;;;13.70;32.76;97530.67;1732256;81;20213;-54
2021/03/06 07:45:18;;;;;;;;;;;;;;;14.67;30.86;97538.73;1746538;82;20241;-54
2021/03/06 07:47:47;;;;;;;;;;;;;;;15.10;29.43;97529.09;1746608;82;21004;-54
2021/03/06 07:50:20;;;;;;;;;;;;;;;15.34;28.54;97535.56;1751558;81;20224;-54
2021/03/06 07:52:47;;;;;;;;;;;;;;;15.67;28.01;97532.66;1765125;81;22150;-54
2021/03/06 07:55:15;;;;;;;;;;;;;;;16.06;27.40;97537.11;1738422;81;20218;-54
2021/03/06 07:58:11;;;;;;;;;;;;;;;16.09;26.90;97532.95;1745335;81;20228;-54
2021/03/06 08:00:50;;;;;;;;;;;;;;;16.25;26.96;97536.52;1768696;81;20216;-54
2021/03/06 08:03:26;;;;;;;;;;;;;;;16.83;26.04;97540.69;1767684;81;20238;-54
2021/03/06 08:06:01;;;;;;;;;;;;;;;17.29;25.11;97542.20;1742889;82;22189;-54
2021/03/06 08:08:36;;;;;;;;;;;;;;;17.64;24.71;97544.48;1709593;84;20496;-54
2021/03/06 08:11:06;;;;;;;;;;;;;;;17.83;24.55;97539.01;1761512;81;20224;-53
2021/03/06 08:13:35;;;;;;;;;;;;;;;18.05;23.84;97534.57;1742177;81;20241;-53
2021/03/06 08:16:24;;;;;;;;;;;;;;;18.42;23.60;97534.84;1767858;81;20224;-53
2021/03/06 08:19:13;;;;;;;;;;;;;;;18.79;23.20;97539.95;1742740;82;21378;-53
2021/03/06 08:21:43;;;;;;;;;;;;;;;19.16;22.45;97540.61;1761366;81;20228;-53
2021/03/06 08:24:24;;;;;;;;;;;;;;;19.41;21.95;97536.59;1749444;81;20230;-54
2021/03/06 08:27:07;;;;;;;;;;;;;;;19.58;21.51;97535.84;1745121;81;20224;-53
2021/03/06 08:29:53;;;;;;;;;;;;;;;19.74;21.35;97537.08;1740190;82;20234;-54
2021/03/06 08:32:26;;;;;;;;;;;;;;;19.95;21.26;97535.10;1759351;81;22013;-55
2021/03/06 08:34:59;;;;;;;;;;;;;;;20.21;21.01;97530.00;1740239;81;37418;-53
2021/03/06 08:37:29;;;;;;;;;;;;;;;20.31;20.39;97540.50;1747283;81;20239;-53
2021/03/06 08:40:12;;;;;;;;;;;;;;;20.39;20.50;97539.74;1738320;82;20218;-53
2021/03/06 08:42:50;;;;;;;;;;;;;;;20.59;20.45;97546.58;1716409;83;20549;-53
2021/03/06 08:45:24;;;;;;;;;;;;;;;20.81;20.56;97542.39;1711835;82;21212;-54
2021/03/06 08:48:02;;;;;;;;;;;;;;;21.05;20.04;97546.58;1707569;83;20226;-54
2021/03/06 08:50:32;;;;;;;;;;;;;;;21.26;19.88;97552.84;1761791;81;20236;-53
2021/03/06 08:53:05;;;;;;;;;;;;;;;21.30;19.85;97556.86;1716071;83;20624;-53
2021/03/06 08:55:34;;;;;;;;;;;;;;;21.42;19.24;97557.94;1744453;82;20834;-53
2021/03/06 08:58:02;;;;;;;;;;;;;;;21.58;19.46;97558.56;1726543;83;21214;-53
2021/03/06 09:00:36;;;;;;;;;;;;;;;21.74;18.86;97561.81;1744608;82;20235;-54
2021/03/06 09:03:15;;;;;;;;;;;;;;;21.72;18.31;97565.94;1726047;83;20231;-53
2021/03/06 09:05:45;;;;;;;;;;;;;;;21.58;18.89;97563.84;1695971;84;20227;-54
2021/03/06 09:08:20;;;;;;;;;;;;;;;21.75;18.30;97568.77;1680904;83;20225;-55
2021/03/06 09:10:48;;;;;;;;;;;;;;;21.62;18.40;97565.20;1701478;83;21262;-53
2021/03/06 09:13:22;;;;;;;;;;;;;;;21.17;18.30;97573.56;1706430;84;20288;-54
2021/03/06 09:15:52;;;;;;;;;;;;;;;20.46;18.59;97571.62;1706354;84;20245;-54
2021/03/06 09:18:24;;;;;;;;;;;;;;;19.37;19.11;97572.04;1707583;84;20275;-54
2021/03/06 09:20:57;;;;;;;;;;;;;;;18.00;20.02;97579.60;1743353;81;20235;-54
2021/03/06 09:23:33;;;;;;;;;;;;;;;16.64;21.08;97584.06;1755397;81;22168;-54
2021/03/06 09:26:19;;;;;;;;;;;;;;;15.25;22.17;97589.86;1737232;81;20232;-53
2021/03/06 09:28:49;;;;;;;;;;;;;;;14.08;23.43;97580.69;1753865;81;20228;-53
2021/03/06 09:31:23;;;;;;;;;;;;;;;13.22;24.34;97589.02;1754158;81;21165;-55
2021/03/06 09:33:52;;;;;;;;;;;;;;;13.23;24.61;97588.09;1759111;81;20216;-55
2021/03/06 09:36:22;;;;;;;;;;;;;;;14.02;24.65;97588.93;1756061;81;21204;-54
2021/03/06 09:38:51;;;;;;;;;;;;;;;14.93;23.75;97593.03;1715509;83;20274;-55
2021/03/06 09:41:23;;;;;;;;;;;;;;;15.78;22.68;97582.90;1725223;81;20219;-56
2021/03/06 09:43:55;;;;;;;;;;;;;;;15.85;22.86;97578.03;1748074;81;20274;-54
2021/03/06 09:46:31;;;;;;;;;;;;;;;15.65;23.05;97589.02;1754159;81;20220;-55
2021/03/06 09:49:07;;;;;;;;;;;;;;;15.47;22.33;97594.33;1747646;81;22143;-54
2021/03/06 09:51:42;;;;;;;;;;;;;;;15.39;21.97;97590.14;1759981;81;20247;-54
2021/03/06 09:54:12;;;;;;;;;;;;;;;15.33;22.65;97597.12;1762161;81;20256;-54
2021/03/06 09:56:55;;;;;;;;;;;;;;;15.46;22.83;97596.11;1757195;81;20407;-54
2021/03/06 09:59:25;;;;;;;;;;;;;;;15.68;22.72;97597.12;1762652;81;20215;-54
2021/03/06 10:01:53;;;;;;;;;;;;;;;15.74;22.72;97603.66;1762096;81;21208;-55
2021/03/06 10:04:23;;;;;;;;;;;;;;;15.58;22.75;97611.36;1762971;81;20220;-54
2021/03/06 10:06:52;;;;;;;;;;;;;;;15.04;23.23;97620.53;1722347;82;20286;-54
2021/03/06 10:09:21;;;;;;;;;;;;;;;14.38;24.26;97625.66;1748441;81;20798;-54
2021/03/06 10:11:57;;;;;;;;;;;;;;;14.45;24.82;97617.27;1764054;81;20212;-55
2021/03/06 10:14:27;;;;;;;;;;;;;;;15.22;24.63;97627.99;1760210;81;21377;-54
2021/03/06 10:16:56;;;;;;;;;;;;;;;16.10;23.42;97627.56;1761183;81;20212;-54
2021/03/06 10:19:32;;;;;;;;;;;;;;;16.72;22.78;97626.70;1757132;81;20219;-55
2021/03/06 10:22:07;;;;;;;;;;;;;;;16.89;22.62;97631.94;1766088;81;20215;-54
2021/03/06 10:24:58;;;;;;;;;;;;;;;16.96;22.54;97637.07;1762366;81;20256;-54
2021/03/06 10:27:46;;;;;;;;;;;;;;;16.82;22.17;97635.50;1755097;81;22300;-54
2021/03/06 10:30:19;;;;;;;;;;;;;;;16.12;23.49;97644.47;1755231;81;20236;-55
2021/03/06 10:32:51;;;;;;;;;;;;;;;15.20;23.92;97648.19;1760379;81;20275;-54
2021/03/06 10:35:39;;;;;;;;;;;;;;;14.21;24.66;97648.55;1759687;81;20255;-54
2021/03/06 10:38:10;;;;;;;;;;;;;;;13.58;25.54;97651.44;1773742;80;20490;-54
2021/03/06 10:40:55;;;;;;;;;;;;;;;12.83;26.52;97654.01;1776462;80;21474;-54
2021/03/06 10:43:35;;;;;;;;;;;;;;;12.02;27.55;97658.48;1770576;80;20232;-55
2021/03/06 10:46:18;;;;;;;;;;;;;;;11.22;29.51;97660.00;1704013;83;20268;-55
2021/03/06 10:48:57;;;;;;;;;;;;;;;10.34;32.22;97666.49;1705191;83;20226;-57
2021/03/06 10:51:41;;;;;;;;;;;;;;;9.39;34.13;97665.17;1691402;83;20244;-54
2021/03/06 10:54:09;;;;;;;;;;;;;;;8.58;35.55;97665.09;1700471;83;22269;-55
2021/03/06 10:56:39;;;;;;;;;;;;;;;7.91;36.57;97661.51;1687466;84;20528;-51
2021/03/06 10:59:09;;;;;;;;;;;;;;;7.84;37.04;97661.82;1703933;83;20227;-55
2021/03/06 11:01:48;;;;;;;;;;;;;;;8.55;35.96;97663.94;1695274;84;20231;-56
2021/03/06 11:04:31;;;;;;;;;;;;;;;9.61;35.11;97661.53;1686285;84;20234;-55
2021/03/06 11:07:07;;;;;;;;;;;;;;;10.70;33.78;97650.36;1659091;84;21384;-55
2021/03/06 11:09:39;;;;;;;;;;;;;;;11.74;31.85;97640.59;1690346;84;20247;-54
2021/03/06 11:12:17;;;;;;;;;;;;;;;12.42;30.94;97639.66;1692370;84;20234;-55
2021/03/06 11:14:44;;;;;;;;;;;;;;;12.48;30.19;97639.27;1680928;84;20785;-54
2021/03/06 11:17:16;;;;;;;;;;;;;;;12.00;30.05;97633.51;1722190;81;20240;-55
2021/03/06 11:19:44;;;;;;;;;;;;;;;11.04;30.62;97648.05;1773428;80;21362;-55
2021/03/06 11:22:13;;;;;;;;;;;;;;;10.10;32.30;97653.86;1769746;80;20248;-55
2021/03/06 11:24:41;;;;;;;;;;;;;;;9.81;33.02;97654.05;1772762;80;20503;-54
2021/03/06 11:27:09;;;;;;;;;;;;;;;9.93;33.33;97649.55;1768283;80;20668;-55
2021/03/06 11:29:37;;;;;;;;;;;;;;;10.38;33.50;97645.11;1763768;80;20244;-54
2021/03/06 11:32:06;;;;;;;;;;;;;;;10.62;32.97;97646.40;1779496;80;21808;-56
2021/03/06 11:34:34;;;;;;;;;;;;;;;10.17;32.81;97645.30;1769194;80;20271;-55
2021/03/06 11:37:02;;;;;;;;;;;;;;;9.30;34.02;97655.25;1782248;80;20232;-55
2021/03/06 11:39:29;;;;;;;;;;;;;;;8.42;35.10;97649.38;1766244;80;20419;-54
2021/03/06 11:41:58;;;;;;;;;;;;;;;7.46;36.66;97660.39;1773008;80;20500;-55
2021/03/06 11:44:26;;;;;;;;;;;;;;;6.93;37.83;97645.69;1774321;80;21355;-54
2021/03/06 11:46:57;;;;;;;;;;;;;;;7.02;38.00;97652.67;1771698;80;21996;-54
2021/03/06 11:49:26;;;;;;;;;;;;;;;7.66;37.22;97635.02;1765749;80;20495;-55
2021/03/06 11:51:55;;;;;;;;;;;;;;;8.58;36.09;97637.93;1771016;80;20224;-55
2021/03/06 11:54:22;;;;;;;;;;;;;;;9.47;34.42;97636.28;1767791;80;20283;-55
2021/03/06 11:56:49;;;;;;;;;;;;;;;10.03;33.39;97640.84;1782086;80;21253;-56
2021/03/06 11:59:17;;;;;;;;;;;;;;;10.47;32.77;97635.55;1778966;80;20212;-55
2021/03/06 12:01:44;;;;;;;;;;;;;;;10.56;32.07;97631.62;1775733;80;20516;-55
2021/03/06 12:04:12;;;;;;;;;;;;;;;10.43;31.89;97628.40;1774668;80;20220;-55
2021/03/06 12:06:39;;;;;;;;;;;;;;;10.17;31.80;97631.04;1775498;80;20271;-55
2021/03/06 12:09:07;;;;;;;;;;;;;;;9.92;32.08;97633.61;1774136;80;22146;-54
2021/03/06 12:11:36;;;;;;;;;;;;;;;10.02;31.91;97633.97;1768836;80;20234;-54
2021/03/06 12:14:04;;;;;;;;;;;;;;;10.10;31.66;97631.82;1761889;80;20222;-54
2021/03/06 12:16:31;;;;;;;;;;;;;;;9.95;32.11;97633.45;1774931;80;20489;-54
2021/03/06 12:18:59;;;;;;;;;;;;;;;9.66;32.36;97624.56;1743088;80;20494;-56
2021/03/06 12:21:28;;;;;;;;;;;;;;;9.25;32.72;97618.84;1758602;80;21138;-55
2021/03/06 12:23:56;;;;;;;;;;;;;;;9.05;33.15;97627.58;1778180;80;20212;-55
2021/03/06 12:26:23;;;;;;;;;;;;;;;9.29;33.41;97627.69;1767591;80;20597;-54
2021/03/06 12:28:53;;;;;;;;;;;;;;;9.75;32.70;97627.13;1749830;80;20224;-55
2021/03/06 12:31:21;;;;;;;;;;;;;;;10.02;32.04;97625.36;1772912;80;20218;-55
2021/03/06 12:33:48;;;;;;;;;;;;;;;10.26;31.17;97618.89;1776145;80;21608;-55
2021/03/06 12:36:16;;;;;;;;;;;;;;;10.52;30.51;97619.74;1779704;80;20240;-57
2021/03/06 12:38:44;;;;;;;;;;;;;;;10.56;30.10;97623.39;1755284;80;20276;-55
2021/03/06 12:41:11;;;;;;;;;;;;;;;10.70;30.08;97623.10;1776613;80;20232;-55
2021/03/06 12:43:38;;;;;;;;;;;;;;;11.10;30.01;97628.23;1777508;80;20225;-55
2021/03/06 12:46:08;;;;;;;;;;;;;;;11.52;29.59;97628.00;1771677;80;21197;-56
2021/03/06 12:48:37;;;;;;;;;;;;;;;11.76;29.83;97627.04;1770462;80;20227;-56
2021/03/06 12:51:06;;;;;;;;;;;;;;;11.31;30.50;97633.13;1771403;80;20310;-56
2021/03/06 12:53:34;;;;;;;;;;;;;;;10.39;31.68;97633.83;1767090;80;20307;-55
2021/03/06 12:56:02;;;;;;;;;;;;;;;9.40;32.94;97642.22;1765835;80;20275;-55
2021/03/06 12:58:29;;;;;;;;;;;;;;;8.39;34.82;97649.09;1779990;80;21842;-56
2021/03/06 13:00:57;;;;;;;;;;;;;;;7.83;35.78;97645.48;1772141;80;20235;-57
2021/03/06 13:03:25;;;;;;;;;;;;;;;7.59;36.70;97654.27;1768915;80;20496;-54
2021/03/06 13:05:53;;;;;;;;;;;;;;;7.39;37.43;97657.22;1772913;80;20285;-54
2021/03/06 13:08:21;;;;;;;;;;;;;;;7.22;37.19;97654.46;1769315;80;20227;-55
2021/03/06 13:10:48;;;;;;;;;;;;;;;7.13;37.73;97661.67;1749687;80;22369;-59
2021/03/06 13:13:16;;;;;;;;;;;;;;;7.31;37.68;97661.85;1766767;80;20216;-55